createdAt,value
2019-03-30T00:02:27.774Z,10.20
2019-03-30T00:04:55.573Z,10.40
2019-03-30T00:07:24.012Z,10.40
2019-03-30T00:09:51.983Z,10.33
2019-03-30T00:12:22.942Z,10.50
2019-03-30T00:14:49.648Z,10.20
2019-03-30T00:19:51.326Z,10.27
2019-03-30T00:22:20.469Z,10.17
2019-03-30T00:24:48.440Z,9.93
2019-03-30T00:27:16.446Z,9.57
2019-03-30T00:29:44.430Z,10.17
2019-03-30T00:32:12.343Z,10.20
2019-03-30T00:34:40.431Z,10.03
2019-03-30T00:37:08.528Z,10.10
2019-03-30T00:39:36.537Z,9.77
2019-03-30T00:42:04.412Z,10.23
2019-03-30T00:44:32.322Z,9.90
2019-03-30T00:47:00.156Z,9.33
2019-03-30T00:49:28.084Z,10.20
2019-03-30T00:51:56.109Z,9.70
2019-03-30T00:54:24.002Z,9.47
2019-03-30T00:56:52.351Z,9.67
2019-03-30T00:59:20.289Z,9.83
2019-03-30T01:01:48.189Z,9.23
2019-03-30T01:04:16.134Z,9.40
2019-03-30T01:06:44.009Z,9.50
2019-03-30T01:09:12.100Z,9.63
2019-03-30T01:11:40.066Z,9.60
2019-03-30T01:14:08.241Z,9.60
2019-03-30T01:16:36.305Z,9.00
2019-03-30T01:19:04.285Z,9.53
2019-03-30T01:21:32.235Z,9.97
2019-03-30T01:24:00.279Z,10.00
2019-03-30T01:26:28.318Z,8.53
2019-03-30T01:28:56.258Z,9.20
2019-03-30T01:31:24.403Z,9.30
2019-03-30T01:33:52.438Z,9.63
2019-03-30T01:36:20.403Z,9.03
2019-03-30T01:38:48.316Z,9.10
2019-03-30T01:41:16.243Z,8.83
2019-03-30T01:43:44.146Z,8.23
2019-03-30T01:46:12.020Z,8.87
2019-03-30T01:48:39.812Z,8.03
2019-03-30T01:51:07.557Z,8.90
2019-03-30T01:53:35.762Z,8.53
2019-03-30T01:56:03.622Z,8.30
2019-03-30T01:58:31.620Z,8.10
2019-03-30T02:00:59.470Z,8.17
2019-03-30T02:03:27.479Z,9.30
2019-03-30T02:05:55.455Z,8.93
2019-03-30T02:08:23.320Z,8.87
2019-03-30T02:10:51.189Z,8.57
2019-03-30T02:13:19.051Z,8.10
2019-03-30T02:15:46.907Z,8.23
2019-03-30T02:18:14.820Z,7.87
2019-03-30T02:20:44.014Z,7.97
2019-03-30T02:23:12.060Z,7.70
2019-03-30T02:25:40.066Z,8.00
2019-03-30T02:28:08.177Z,8.17
2019-03-30T02:30:36.352Z,8.13
2019-03-30T02:33:04.475Z,8.47
2019-03-30T02:35:32.351Z,8.03
2019-03-30T02:38:00.382Z,8.40
2019-03-30T02:40:28.294Z,8.90
2019-03-30T02:42:56.253Z,9.00
2019-03-30T02:45:24.186Z,8.33
2019-03-30T02:47:52.096Z,7.70
2019-03-30T02:50:20.053Z,8.67
2019-03-30T02:52:47.792Z,8.77
2019-03-30T02:55:15.719Z,8.10
2019-03-30T02:57:43.464Z,7.97
2019-03-30T03:00:13.589Z,8.23
2019-03-30T03:02:41.444Z,8.40
2019-03-30T03:05:09.682Z,8.33
2019-03-30T03:07:37.574Z,8.03
2019-03-30T03:10:05.966Z,8.13
2019-03-30T03:12:33.912Z,8.33
2019-03-30T03:15:01.951Z,7.90
2019-03-30T03:17:29.922Z,8.23
2019-03-30T03:19:57.895Z,7.80
2019-03-30T03:22:25.977Z,8.53
2019-03-30T03:24:54.144Z,8.13
2019-03-30T03:27:22.111Z,8.17
2019-03-30T03:29:50.118Z,7.63
2019-03-30T03:32:18.171Z,8.30
2019-03-30T03:34:45.966Z,8.70
2019-03-30T03:37:13.798Z,8.70
2019-03-30T03:39:41.645Z,8.73
2019-03-30T03:42:09.593Z,9.07
2019-03-30T03:44:37.487Z,8.73
2019-03-30T03:47:05.346Z,8.60
2019-03-30T03:49:33.319Z,8.60
2019-03-30T03:52:01.418Z,8.13
2019-03-30T03:54:29.947Z,7.70
2019-03-30T03:56:57.875Z,7.57
2019-03-30T03:59:26.730Z,7.90
2019-03-30T04:01:55.686Z,7.77
2019-03-30T04:04:26.141Z,7.57
2019-03-30T04:06:58.150Z,7.50
2019-03-30T04:09:29.697Z,7.50
2019-03-30T04:11:58.907Z,7.43
2019-03-30T04:14:26.746Z,7.67
2019-03-30T04:16:54.617Z,7.70
2019-03-30T04:19:22.442Z,7.13
2019-03-30T04:21:50.330Z,7.67
2019-03-30T04:24:18.301Z,7.23
2019-03-30T04:26:46.225Z,7.80
2019-03-30T04:29:14.230Z,7.83
2019-03-30T04:31:42.203Z,7.50
2019-03-30T04:34:10.147Z,7.80
2019-03-30T04:36:38.056Z,7.53
2019-03-30T04:39:06.065Z,7.80
2019-03-30T04:41:34.017Z,8.40
2019-03-30T04:44:01.953Z,8.07
2019-03-30T04:46:29.835Z,8.03
2019-03-30T04:48:57.767Z,7.80
2019-03-30T04:51:26.431Z,8.37
2019-03-30T04:53:54.246Z,7.80
2019-03-30T04:56:22.336Z,7.97
2019-03-30T04:58:50.375Z,7.67
2019-03-30T05:01:18.331Z,7.60
2019-03-30T05:03:46.450Z,7.50
2019-03-30T05:06:14.617Z,7.17
2019-03-30T05:08:42.676Z,7.50
2019-03-30T05:11:10.683Z,7.10
2019-03-30T05:13:38.695Z,7.27
2019-03-30T05:16:06.788Z,7.23
2019-03-30T05:18:34.733Z,6.87
2019-03-30T05:21:02.595Z,7.27
2019-03-30T05:23:30.495Z,7.40
2019-03-30T05:25:58.462Z,7.10
2019-03-30T05:28:26.404Z,6.97
2019-03-30T05:30:54.383Z,6.97
2019-03-30T05:33:22.406Z,7.27
2019-03-30T05:35:50.378Z,6.63
2019-03-30T05:38:18.355Z,7.30
2019-03-30T05:40:46.259Z,7.73
2019-03-30T05:43:14.292Z,7.00
2019-03-30T05:45:42.182Z,7.30
2019-03-30T05:48:10.068Z,7.50
2019-03-30T05:50:37.993Z,7.40
2019-03-30T05:53:06.026Z,7.20
2019-03-30T05:55:33.885Z,7.60
2019-03-30T05:58:01.716Z,7.60
2019-03-30T06:00:29.586Z,7.30
2019-03-30T06:02:57.568Z,7.63
2019-03-30T06:05:25.507Z,7.30
2019-03-30T06:07:53.469Z,7.17
2019-03-30T06:10:21.361Z,7.20
2019-03-30T06:12:49.342Z,7.40
2019-03-30T06:15:17.372Z,6.87
2019-03-30T06:17:45.250Z,7.30
2019-03-30T06:20:13.242Z,7.30
2019-03-30T06:22:41.216Z,7.03
2019-03-30T06:25:09.261Z,6.97
2019-03-30T06:27:37.197Z,6.87
2019-03-30T06:30:21.761Z,6.73
2019-03-30T06:32:49.666Z,6.70
2019-03-30T06:35:17.658Z,6.47
2019-03-30T06:37:45.599Z,6.33
2019-03-30T06:40:13.646Z,7.43
2019-03-30T06:42:41.516Z,6.60
2019-03-30T06:45:09.421Z,6.57
2019-03-30T06:47:37.278Z,6.47
2019-03-30T06:50:05.566Z,6.63
2019-03-30T06:52:33.525Z,7.03
2019-03-30T06:55:01.492Z,6.40
2019-03-30T06:57:29.441Z,5.93
2019-03-30T06:59:57.325Z,6.43
2019-03-30T07:02:25.719Z,6.33
2019-03-30T07:04:53.641Z,5.97
2019-03-30T07:07:24.987Z,6.47
2019-03-30T07:09:53.032Z,6.17
2019-03-30T07:12:22.929Z,6.07
2019-03-30T07:14:52.784Z,6.57
2019-03-30T07:17:21.372Z,6.00
2019-03-30T07:19:52.821Z,6.40
2019-03-30T07:22:35.373Z,6.23
2019-03-30T07:25:03.311Z,6.67
2019-03-30T07:27:31.309Z,6.50
2019-03-30T07:29:59.122Z,6.30
2019-03-30T07:32:27.025Z,6.67
2019-03-30T07:34:55.012Z,6.50
2019-03-30T07:37:23.030Z,7.33
2019-03-30T07:39:51.147Z,6.83
2019-03-30T07:42:19.225Z,6.87
2019-03-30T07:44:47.188Z,6.57
2019-03-30T07:47:16.774Z,7.07
2019-03-30T07:49:47.808Z,7.27
2019-03-30T07:52:15.886Z,6.60
2019-03-30T07:54:43.807Z,6.20
2019-03-30T07:57:17.305Z,6.83
2019-03-30T07:59:41.483Z,7.97
2019-03-30T08:02:09.447Z,7.00
2019-03-30T08:04:37.400Z,7.30
2019-03-30T08:07:05.411Z,7.30
2019-03-30T08:09:33.396Z,7.00
2019-03-30T08:12:02.165Z,7.10
2019-03-30T08:14:30.122Z,8.23
2019-03-30T08:16:58.007Z,8.87
2019-03-30T08:19:25.964Z,8.70
2019-03-30T08:21:53.914Z,7.83
2019-03-30T08:24:21.903Z,7.90
2019-03-30T08:26:49.855Z,8.60
2019-03-30T08:29:17.699Z,8.73
2019-03-30T08:31:49.923Z,8.33
2019-03-30T08:34:16.935Z,7.83
2019-03-30T08:36:45.075Z,8.40
2019-03-30T08:39:12.941Z,8.63
2019-03-30T08:41:40.913Z,8.90
2019-03-30T08:44:08.923Z,9.17
2019-03-30T08:46:37.070Z,9.40
2019-03-30T08:49:05.706Z,9.43
2019-03-30T08:51:33.615Z,9.80
2019-03-30T08:54:01.589Z,9.40
2019-03-30T08:56:29.555Z,9.77
2019-03-30T08:58:57.575Z,9.33
2019-03-30T09:01:25.599Z,10.07
2019-03-30T09:03:53.608Z,9.83
2019-03-30T09:06:21.649Z,10.70
2019-03-30T09:08:49.532Z,9.87
2019-03-30T09:11:17.462Z,9.10
2019-03-30T09:13:45.361Z,10.63
2019-03-30T09:16:25.108Z,10.20
2019-03-30T09:18:53.039Z,9.60
2019-03-30T09:21:21.151Z,10.33
2019-03-30T09:23:49.068Z,9.90
2019-03-30T09:26:17.296Z,9.83
2019-03-30T09:28:45.300Z,10.37
2019-03-30T09:31:13.302Z,9.33
2019-03-30T09:33:41.347Z,9.33
2019-03-30T09:36:09.328Z,9.30
2019-03-30T09:38:37.305Z,9.50
2019-03-30T09:41:05.234Z,9.77
2019-03-30T09:43:32.987Z,9.33
2019-03-30T09:46:01.639Z,8.70
2019-03-30T09:48:29.586Z,8.48
2019-03-30T09:50:57.531Z,9.17
2019-03-30T09:53:25.473Z,8.98
2019-03-30T09:55:53.364Z,8.98
2019-03-30T09:58:21.412Z,9.08
2019-03-30T10:00:49.423Z,8.48
2019-03-30T10:03:17.539Z,8.55
2019-03-30T10:05:45.567Z,9.33
2019-03-30T10:08:13.527Z,9.75
2019-03-30T10:10:41.388Z,9.73
2019-03-30T10:13:09.367Z,8.93
2019-03-30T10:15:37.329Z,9.40
2019-03-30T10:18:05.274Z,8.55
2019-03-30T10:20:33.283Z,8.50
2019-03-30T10:23:01.497Z,8.70
2019-03-30T10:25:29.455Z,8.63
2019-03-30T10:27:57.516Z,9.15
2019-03-30T10:30:25.463Z,9.18
2019-03-30T10:32:53.460Z,8.58
2019-03-30T10:35:21.276Z,7.92
2019-03-30T10:37:49.155Z,8.88
2019-03-30T10:40:20.623Z,8.75
2019-03-30T10:42:46.986Z,9.28
2019-03-30T10:45:14.970Z,9.00
2019-03-30T10:47:54.090Z,9.58
2019-03-30T10:50:21.977Z,9.03
2019-03-30T10:52:50.272Z,8.98
2019-03-30T10:55:18.123Z,8.78
2019-03-30T10:57:46.072Z,8.98
2019-03-30T11:00:26.439Z,9.63
2019-03-30T11:02:57.202Z,9.03
2019-03-30T11:05:25.070Z,9.65
2019-03-30T11:07:53.090Z,9.00
2019-03-30T11:10:22.700Z,9.43
2019-03-30T11:12:50.696Z,9.10
2019-03-30T11:15:21.762Z,8.87
2019-03-30T11:17:49.880Z,8.97
2019-03-30T11:20:17.865Z,8.23
2019-03-30T11:22:45.829Z,8.30
2019-03-30T11:25:13.783Z,8.83
2019-03-30T11:27:41.859Z,8.87
2019-03-30T11:30:09.806Z,9.13
2019-03-30T11:32:38.853Z,9.03
2019-03-30T11:35:07.543Z,9.07
2019-03-30T11:37:35.526Z,9.13
2019-03-30T11:40:03.852Z,8.97
2019-03-30T11:42:31.850Z,8.97
2019-03-30T11:44:59.818Z,9.27
2019-03-30T11:47:27.790Z,11.27
2019-03-30T11:49:55.862Z,10.43
2019-03-30T11:52:23.870Z,9.20
2019-03-30T11:54:51.790Z,9.53
2019-03-30T11:57:19.911Z,9.73
2019-03-30T11:59:47.943Z,8.70
2019-03-30T12:02:27.229Z,8.80
2019-03-30T12:04:54.145Z,9.73
2019-03-30T12:07:22.215Z,9.10
2019-03-30T12:09:59.531Z,9.60
2019-03-30T12:12:28.132Z,9.10
2019-03-30T12:14:56.125Z,9.10
2019-03-30T12:17:24.126Z,8.20
2019-03-30T12:19:52.137Z,9.17
2019-03-30T12:22:20.043Z,8.83
2019-03-30T12:24:47.896Z,9.03
2019-03-30T12:27:15.786Z,9.33
2019-03-30T12:29:44.674Z,9.07
2019-03-30T12:32:12.755Z,8.33
2019-03-30T12:34:40.667Z,8.73
2019-03-30T12:37:08.647Z,8.57
2019-03-30T12:39:36.635Z,8.90
2019-03-30T12:42:04.743Z,8.43
2019-03-30T12:44:32.749Z,8.73
2019-03-30T12:47:00.769Z,8.53
2019-03-30T12:49:28.834Z,8.37
2019-03-30T12:51:56.787Z,9.00
2019-03-30T12:54:24.769Z,9.30
2019-03-30T12:56:55.491Z,8.60
2019-03-30T12:59:23.501Z,8.70
2019-03-30T13:01:51.515Z,7.80
2019-03-30T13:04:19.527Z,7.90
2019-03-30T13:06:47.560Z,8.37
2019-03-30T13:09:15.583Z,8.90
2019-03-30T13:11:43.546Z,8.00
2019-03-30T13:14:11.535Z,8.10
2019-03-30T13:16:39.550Z,7.57
2019-03-30T13:19:07.574Z,7.57
2019-03-30T13:21:35.521Z,7.03
2019-03-30T13:24:03.532Z,7.80
2019-03-30T13:26:31.463Z,7.50
2019-03-30T13:28:59.414Z,8.47
2019-03-30T13:31:27.461Z,8.47
2019-03-30T13:33:55.428Z,8.80
2019-03-30T13:36:39.408Z,7.63
2019-03-30T13:39:07.691Z,8.17
2019-03-30T13:41:35.666Z,7.77
2019-03-30T13:44:03.605Z,8.43
2019-03-30T13:46:31.614Z,8.30
2019-03-30T13:48:59.565Z,8.70
2019-03-30T13:51:27.545Z,9.53
2019-03-30T13:53:55.661Z,8.37
2019-03-30T13:56:23.573Z,7.77
2019-03-30T13:58:51.615Z,8.07
2019-03-30T14:01:40.237Z,8.30
2019-03-30T14:04:08.179Z,8.47
2019-03-30T14:06:36.001Z,8.20
2019-03-30T14:09:06.051Z,8.60
2019-03-30T14:11:34.036Z,7.60
2019-03-30T14:14:01.921Z,7.57
2019-03-30T14:16:29.793Z,8.00
2019-03-30T14:18:57.695Z,8.63
2019-03-30T14:21:25.571Z,8.13
2019-03-30T14:23:53.463Z,8.33
2019-03-30T14:26:31.143Z,8.57
2019-03-30T14:28:51.223Z,7.27
2019-03-30T14:31:19.233Z,7.77
2019-03-30T14:33:47.140Z,7.67
2019-03-30T14:36:15.442Z,8.90
2019-03-30T14:38:43.450Z,8.13
2019-03-30T14:41:12.311Z,7.47
2019-03-30T14:43:40.204Z,7.17
2019-03-30T14:46:08.060Z,7.83
2019-03-30T14:48:36.118Z,8.77
2019-03-30T14:51:04.086Z,9.17
2019-03-30T14:53:31.964Z,7.70
2019-03-30T14:55:59.915Z,8.90
2019-03-30T14:58:27.851Z,8.63
2019-03-30T15:00:55.772Z,9.37
2019-03-30T15:03:23.812Z,8.70
2019-03-30T15:05:51.768Z,8.27
2019-03-30T15:08:19.777Z,8.20
2019-03-30T15:10:47.678Z,7.67
2019-03-30T15:13:15.603Z,7.83
2019-03-30T15:15:43.469Z,7.80
2019-03-30T15:18:12.632Z,8.50
2019-03-30T15:20:41.528Z,8.77
2019-03-30T15:23:09.782Z,8.20
2019-03-30T15:25:38.979Z,8.00
2019-03-30T15:28:07.071Z,8.70
2019-03-30T15:30:35.048Z,9.10
2019-03-30T15:33:03.725Z,9.50
2019-03-30T15:35:31.797Z,9.20
2019-03-30T15:37:59.766Z,8.70
2019-03-30T15:40:28.295Z,7.97
2019-03-30T15:42:56.222Z,8.47
2019-03-30T15:45:24.385Z,8.80
2019-03-30T15:47:52.380Z,9.00
2019-03-30T15:50:20.392Z,8.83
2019-03-30T15:52:48.406Z,9.37
2019-03-30T15:55:16.367Z,8.10
2019-03-30T15:57:44.326Z,8.60
2019-03-30T16:00:14.824Z,8.87
2019-03-30T16:02:42.679Z,9.30
2019-03-30T16:05:10.649Z,8.40
2019-03-30T16:07:38.713Z,8.60
2019-03-30T16:10:07.035Z,7.97
2019-03-30T16:12:35.009Z,7.60
2019-03-30T16:15:03.360Z,8.17
2019-03-30T16:17:31.298Z,8.17
2019-03-30T16:19:59.252Z,8.43
2019-03-30T16:22:27.362Z,8.67
2019-03-30T16:24:55.278Z,8.77
2019-03-30T16:27:29.055Z,7.97
2019-03-30T16:29:52.983Z,8.90
2019-03-30T16:32:20.850Z,8.83
2019-03-30T16:34:48.976Z,8.10
2019-03-30T16:37:17.827Z,7.70
2019-03-30T16:39:45.819Z,9.13
2019-03-30T16:42:13.789Z,8.67
2019-03-30T16:44:41.847Z,8.70
2019-03-30T16:47:09.919Z,7.90
2019-03-30T16:49:38.007Z,8.43
2019-03-30T16:52:06.073Z,8.37
2019-03-30T16:54:34.458Z,8.33
2019-03-30T16:57:02.499Z,7.57
2019-03-30T16:59:30.391Z,7.33
2019-03-30T17:01:58.359Z,8.07
2019-03-30T17:04:29.385Z,7.53
2019-03-30T17:06:56.280Z,7.60
2019-03-30T17:09:24.410Z,7.40
2019-03-30T17:11:52.287Z,8.07
2019-03-30T17:14:20.262Z,7.80
2019-03-30T17:16:48.236Z,8.13
2019-03-30T17:19:16.575Z,9.93
2019-03-30T17:21:44.511Z,9.63
2019-03-30T17:24:12.652Z,8.87
2019-03-30T17:26:40.586Z,7.93
2019-03-30T17:29:08.626Z,8.60
2019-03-30T17:31:37.133Z,9.03
2019-03-30T17:34:10.397Z,8.87
2019-03-30T17:36:38.948Z,8.13
2019-03-30T17:39:08.329Z,8.63
2019-03-30T17:41:36.236Z,9.23
2019-03-30T17:44:04.024Z,12.57
2019-03-30T17:46:32.019Z,16.93
2019-03-30T17:49:00.527Z,13.20
2019-03-30T17:51:28.505Z,11.43
2019-03-30T17:53:56.447Z,10.63
2019-03-30T17:56:24.627Z,10.97
2019-03-30T17:58:52.586Z,9.77
2019-03-30T18:01:20.725Z,11.20
2019-03-30T18:03:52.800Z,10.70
2019-03-30T18:06:20.756Z,11.07
2019-03-30T18:08:48.745Z,11.43
2019-03-30T18:11:16.865Z,15.97
2019-03-30T18:13:44.830Z,13.80
2019-03-30T18:16:12.802Z,12.63
2019-03-30T18:18:40.924Z,11.57
2019-03-30T18:21:08.854Z,11.73
2019-03-30T18:23:36.736Z,11.80
2019-03-30T18:26:04.921Z,11.93
2019-03-30T18:28:32.959Z,10.93
2019-03-30T18:31:00.927Z,11.60
2019-03-30T18:33:29.069Z,10.63
2019-03-30T18:35:57.536Z,10.30
2019-03-30T18:38:25.509Z,10.67
2019-03-30T18:40:53.507Z,11.37
2019-03-30T18:43:21.637Z,10.67
2019-03-30T18:45:49.694Z,11.33
2019-03-30T18:48:18.065Z,11.43
2019-03-30T18:50:46.205Z,12.40
2019-03-30T18:53:15.216Z,12.20
2019-03-30T18:55:43.169Z,11.77
2019-03-30T18:58:11.137Z,12.03
2019-03-30T19:00:39.033Z,11.80
2019-03-30T19:03:07.081Z,12.03
2019-03-30T19:05:35.090Z,11.80
2019-03-30T19:08:03.057Z,11.83
2019-03-30T19:10:30.939Z,11.20
2019-03-30T19:12:58.852Z,11.03
2019-03-30T19:15:26.757Z,11.43
2019-03-30T19:17:54.822Z,12.27
2019-03-30T19:20:22.824Z,11.73
2019-03-30T19:22:50.859Z,12.43
2019-03-30T19:25:19.080Z,12.70
2019-03-30T19:27:47.055Z,11.67
2019-03-30T19:30:15.384Z,12.23
2019-03-30T19:32:43.422Z,12.77
2019-03-30T19:35:11.547Z,13.80
2019-03-30T19:37:39.639Z,13.27
2019-03-30T19:40:08.142Z,13.33
2019-03-30T19:42:36.299Z,12.73
2019-03-30T19:45:05.067Z,13.70
2019-03-30T19:47:32.902Z,13.43
2019-03-30T19:50:02.669Z,13.07
2019-03-30T19:52:39.775Z,13.20
2019-03-30T19:55:00.503Z,13.00
2019-03-30T19:57:31.355Z,12.57
2019-03-30T19:59:59.449Z,13.03
2019-03-30T20:02:27.401Z,12.50
2019-03-30T20:04:55.460Z,12.30
2019-03-30T20:07:23.495Z,12.50
2019-03-30T20:09:51.622Z,13.20
2019-03-30T20:12:19.717Z,13.13
2019-03-30T20:14:47.663Z,13.80
2019-03-30T20:17:15.607Z,12.93
2019-03-30T20:19:43.602Z,14.00
2019-03-30T20:22:11.595Z,13.87
2019-03-30T20:24:39.562Z,14.10
2019-03-30T20:27:07.442Z,14.23
2019-03-30T20:29:35.432Z,16.20
2019-03-30T20:32:03.387Z,14.60
2019-03-30T20:34:31.298Z,13.67
2019-03-30T20:36:59.182Z,14.20
2019-03-30T20:39:27.075Z,14.37
2019-03-30T20:41:55.082Z,14.63
2019-03-30T20:44:22.920Z,14.60
2019-03-30T20:46:51.070Z,14.93
2019-03-30T20:49:19.099Z,15.03
2019-03-30T20:51:47.099Z,15.77
2019-03-30T20:54:15.140Z,14.70
2019-03-30T20:56:43.037Z,15.23
2019-03-30T20:59:10.867Z,14.70
2019-03-30T21:01:38.853Z,15.50
2019-03-30T21:04:06.747Z,14.70
2019-03-30T21:06:37.405Z,15.10
2019-03-30T21:09:07.103Z,14.43
2019-03-30T21:11:35.336Z,14.80
2019-03-30T21:14:03.928Z,15.10
2019-03-30T21:16:32.497Z,15.53
2019-03-30T21:19:00.654Z,15.17
2019-03-30T21:21:28.773Z,15.47
2019-03-30T21:23:56.974Z,16.03
2019-03-30T21:26:28.399Z,15.63
2019-03-30T21:28:54.733Z,15.17
2019-03-30T21:31:23.257Z,15.03
2019-03-30T21:33:51.752Z,16.00
2019-03-30T21:36:20.208Z,15.40
2019-03-30T21:38:48.143Z,14.87
2019-03-30T21:41:16.148Z,14.13
2019-03-30T21:43:44.268Z,14.00
2019-03-30T21:46:12.313Z,13.60
2019-03-30T21:48:40.300Z,13.93
2019-03-30T21:51:08.187Z,14.00
2019-03-30T21:53:36.141Z,13.37
2019-03-30T21:56:04.211Z,13.00
2019-03-30T21:58:32.098Z,13.63
2019-03-30T22:01:00.188Z,13.17
2019-03-30T22:03:28.278Z,13.13
2019-03-30T22:05:56.348Z,13.53
2019-03-30T22:08:24.420Z,13.60
2019-03-30T22:10:52.416Z,12.60
2019-03-30T22:13:21.602Z,13.27
2019-03-30T22:15:49.794Z,13.30
2019-03-30T22:18:17.759Z,12.53
2019-03-30T22:20:45.732Z,12.23
2019-03-30T22:23:13.980Z,12.73
2019-03-30T22:25:41.879Z,12.77
2019-03-30T22:28:09.845Z,13.03
2019-03-30T22:30:37.920Z,12.70
2019-03-30T22:33:05.979Z,11.80
2019-03-30T22:35:33.913Z,12.30
2019-03-30T22:38:01.893Z,12.03
2019-03-30T22:40:29.993Z,12.50
2019-03-30T22:42:57.946Z,12.97
2019-03-30T22:45:26.036Z,12.67
2019-03-30T22:47:54.039Z,12.43
2019-03-30T22:50:21.895Z,12.77
2019-03-30T22:52:49.883Z,12.07
2019-03-30T22:55:17.810Z,12.33
2019-03-30T22:57:45.808Z,12.87
2019-03-30T23:00:49.077Z,11.77
2019-03-30T23:03:17.018Z,11.90
2019-03-30T23:05:44.990Z,12.27
2019-03-30T23:08:12.956Z,12.47
2019-03-30T23:10:40.848Z,11.70
2019-03-30T23:13:11.930Z,11.90
2019-03-30T23:15:39.861Z,11.53
2019-03-30T23:18:07.922Z,11.57
2019-03-30T23:20:35.989Z,11.83
2019-03-30T23:23:03.884Z,10.83
2019-03-30T23:25:32.374Z,11.70
2019-03-30T23:28:00.222Z,11.73
2019-03-30T23:30:30.951Z,12.20
2019-03-30T23:32:58.892Z,12.33
2019-03-30T23:35:26.844Z,11.57
2019-03-30T23:37:55.243Z,12.13
2019-03-30T23:40:23.366Z,12.07
2019-03-30T23:42:51.296Z,10.87
2019-03-30T23:45:19.237Z,11.67
2019-03-30T23:47:48.213Z,11.40
2019-03-30T23:50:16.312Z,11.17
2019-03-30T23:52:44.339Z,11.23
2019-03-30T23:55:12.480Z,11.20
2019-03-30T23:57:40.434Z,10.53
